Time;durP1;ratioP1;P1;durP2;ratioP2;P2;SDS_P1;SDS_P2;PMS_P1;PMS_P2;Temp;Humidity;BMP_temperature;BMP_pressure;BME280_temperature;BME280_humidity;BME280_pressure;Samples;Min_cycle;Max_cycle;Signal;HPM_P1;HPM_P2
2022/03/14 00:00:32;;;;;;;0.95;0.30;;;;;;;;;;5302738;28;20106;-68
2022/03/14 00:03:04;;;;;;;0.60;0.28;;;;;;;;;;5301565;28;20028;-67
2022/03/14 00:05:35;;;;;;;0.50;0.30;;;;;;;;;;5302349;28;20266;-66
2022/03/14 00:08:07;;;;;;;1.02;0.40;;;;;;;;;;5302322;28;20497;-68
2022/03/14 00:10:38;;;;;;;1.35;0.30;;;;;;;;;;5301390;28;20024;-67
2022/03/14 00:13:19;;;;;;;0.70;0.30;;;;;;;;;;5302027;28;20067;-68
2022/03/14 00:15:50;;;;;;;0.95;0.30;;;;;;;;;;5302031;28;20283;-68
2022/03/14 00:18:21;;;;;;;0.80;0.40;;;;;;;;;;5301623;28;20044;-66
2022/03/14 00:20:53;;;;;;;0.93;0.40;;;;;;;;;;5301762;28;20768;-67
2022/03/14 00:23:26;;;;;;;0.90;0.40;;;;;;;;;;5301704;28;20027;-67
2022/03/14 00:25:58;;;;;;;1.02;0.40;;;;;;;;;;5301750;28;20558;-67
2022/03/14 00:28:30;;;;;;;2.25;0.40;;;;;;;;;;5302226;28;20016;-67
2022/03/14 00:31:01;;;;;;;1.10;0.40;;;;;;;;;;5301024;28;20024;-67
2022/03/14 00:33:32;;;;;;;1.35;0.45;;;;;;;;;;5301865;28;20027;-67
2022/03/14 00:36:04;;;;;;;1.42;0.50;;;;;;;;;;5302013;28;20336;-67
2022/03/14 00:38:39;;;;;;;1.10;0.40;;;;;;;;;;5301390;28;20051;-67
2022/03/14 00:41:10;;;;;;;1.27;0.40;;;;;;;;;;5302052;28;20031;-67
2022/03/14 00:43:41;;;;;;;1.13;0.50;;;;;;;;;;5301803;28;20117;-67
2022/03/14 00:46:16;;;;;;;2.25;0.50;;;;;;;;;;5301139;28;20396;-67
2022/03/14 00:48:47;;;;;;;0.70;0.40;;;;;;;;;;5301881;28;20610;-67
2022/03/14 00:51:18;;;;;;;1.50;0.43;;;;;;;;;;5301568;28;20023;-69
2022/03/14 00:53:49;;;;;;;1.23;0.40;;;;;;;;;;5301675;28;20035;-68
2022/03/14 00:56:21;;;;;;;1.50;0.60;;;;;;;;;;5302171;28;20012;-66
2022/03/14 00:58:52;;;;;;;1.23;0.55;;;;;;;;;;5300771;28;20046;-67
2022/03/14 01:01:23;;;;;;;2.20;0.70;;;;;;;;;;5302159;28;20020;-67
2022/03/14 01:03:55;;;;;;;1.10;0.50;;;;;;;;;;5301287;28;20024;-67
2022/03/14 01:06:27;;;;;;;1.50;0.60;;;;;;;;;;5301287;28;20505;-66
2022/03/14 01:08:59;;;;;;;1.33;0.50;;;;;;;;;;5301309;28;20024;-67
2022/03/14 01:11:30;;;;;;;1.02;0.60;;;;;;;;;;5301419;28;20051;-68
2022/03/14 01:14:01;;;;;;;1.60;0.63;;;;;;;;;;5300963;28;20388;-67
2022/03/14 01:16:32;;;;;;;1.67;0.50;;;;;;;;;;5301768;28;20421;-67
2022/03/14 01:19:11;;;;;;;1.65;0.60;;;;;;;;;;5301556;28;20032;-66
2022/03/14 01:21:42;;;;;;;1.85;0.50;;;;;;;;;;5301038;28;20027;-68
2022/03/14 01:24:13;;;;;;;1.48;0.70;;;;;;;;;;5301714;28;20028;-66
2022/03/14 01:26:45;;;;;;;1.70;0.60;;;;;;;;;;5300601;28;20137;-67
2022/03/14 01:29:17;;;;;;;1.27;0.60;;;;;;;;;;5301810;28;20106;-66
2022/03/14 01:31:50;;;;;;;1.27;0.60;;;;;;;;;;5301104;28;20436;-67
2022/03/14 01:34:21;;;;;;;1.42;0.73;;;;;;;;;;5300932;28;20028;-68
2022/03/14 01:36:52;;;;;;;1.83;0.60;;;;;;;;;;5301203;28;20458;-67
2022/03/14 01:39:24;;;;;;;2.05;0.60;;;;;;;;;;5301899;28;20039;-68
2022/03/14 01:41:56;;;;;;;1.17;0.63;;;;;;;;;;5300261;28;20286;-67
2022/03/14 01:44:27;;;;;;;1.10;0.50;;;;;;;;;;5303796;28;20027;-67
2022/03/14 01:47:00;;;;;;;1.95;0.63;;;;;;;;;;5304766;28;20016;-66
2022/03/14 01:49:31;;;;;;;2.40;0.77;;;;;;;;;;5304398;28;20370;-67
2022/03/14 01:52:05;;;;;;;1.65;0.75;;;;;;;;;;5305065;28;20016;-67
2022/03/14 01:54:37;;;;;;;1.55;0.70;;;;;;;;;;5304261;28;20027;-67
2022/03/14 01:57:08;;;;;;;1.55;0.80;;;;;;;;;;5305063;28;20012;-67
2022/03/14 01:59:40;;;;;;;1.20;0.60;;;;;;;;;;5304891;28;20043;-67
2022/03/14 02:02:11;;;;;;;2.03;0.75;;;;;;;;;;5304147;28;20043;-67
2022/03/14 02:04:42;;;;;;;1.50;0.80;;;;;;;;;;5304852;28;20039;-67
2022/03/14 02:07:13;;;;;;;2.28;0.65;;;;;;;;;;5304628;28;20278;-66
2022/03/14 02:09:44;;;;;;;1.38;0.70;;;;;;;;;;5303898;28;20737;-66
2022/03/14 02:12:16;;;;;;;1.58;0.70;;;;;;;;;;5304770;28;20071;-67
2022/03/14 02:14:47;;;;;;;1.40;0.60;;;;;;;;;;5304324;28;20035;-67
2022/03/14 02:17:21;;;;;;;2.25;0.70;;;;;;;;;;5303921;28;20016;-67
2022/03/14 02:19:53;;;;;;;1.88;0.68;;;;;;;;;;5304102;28;20028;-67
2022/03/14 02:22:24;;;;;;;1.80;0.80;;;;;;;;;;5304660;28;20535;-67
2022/03/14 02:24:56;;;;;;;1.45;0.70;;;;;;;;;;5303511;28;20066;-67
2022/03/14 02:27:27;;;;;;;1.63;0.70;;;;;;;;;;5304515;28;20019;-66
2022/03/14 02:29:58;;;;;;;1.58;0.80;;;;;;;;;;5303217;28;20270;-67
2022/03/14 02:32:30;;;;;;;1.85;0.80;;;;;;;;;;5304177;28;20274;-67
2022/03/14 02:35:01;;;;;;;4.18;0.80;;;;;;;;;;5304336;28;20089;-67
2022/03/14 02:37:32;;;;;;;1.27;0.70;;;;;;;;;;5303158;28;20016;-68
2022/03/14 02:40:04;;;;;;;1.60;0.90;;;;;;;;;;5303877;28;20859;-67
2022/03/14 02:42:36;;;;;;;2.15;0.80;;;;;;;;;;5303976;28;20246;-67
2022/03/14 02:45:09;;;;;;;1.60;0.80;;;;;;;;;;5303170;28;20482;-67
2022/03/14 02:47:40;;;;;;;1.70;0.85;;;;;;;;;;5304138;28;20091;-68
2022/03/14 02:50:11;;;;;;;1.50;0.90;;;;;;;;;;5303899;28;20024;-67
2022/03/14 02:52:43;;;;;;;1.67;0.80;;;;;;;;;;5302878;28;20028;-67
2022/03/14 02:55:17;;;;;;;1.52;0.75;;;;;;;;;;5303376;28;20719;-67
2022/03/14 02:57:48;;;;;;;1.40;0.80;;;;;;;;;;5302779;28;20459;-68
2022/03/14 03:00:20;;;;;;;2.22;0.80;;;;;;;;;;5304045;28;20087;-67
2022/03/14 03:02:51;;;;;;;1.67;0.73;;;;;;;;;;5303375;28;20093;-66
2022/03/14 03:05:22;;;;;;;1.90;0.80;;;;;;;;;;5302803;28;20012;-67
2022/03/14 03:07:56;;;;;;;1.52;0.70;;;;;;;;;;5303362;28;20367;-68
2022/03/14 03:10:28;;;;;;;1.83;1.15;;;;;;;;;;5303823;28;20479;-67
2022/03/14 03:12:59;;;;;;;1.88;1.20;;;;;;;;;;5302242;28;20040;-67
2022/03/14 03:15:30;;;;;;;1.48;0.70;;;;;;;;;;5303405;28;20441;-67
2022/03/14 03:18:01;;;;;;;1.30;0.60;;;;;;;;;;5303035;28;20066;-67
2022/03/14 03:20:33;;;;;;;1.50;0.75;;;;;;;;;;5302581;28;20356;-67
2022/03/14 03:23:04;;;;;;;1.23;0.60;;;;;;;;;;5303328;28;20751;-66
2022/03/14 03:25:35;;;;;;;1.22;0.68;;;;;;;;;;5303123;28;20031;-68
2022/03/14 03:28:06;;;;;;;1.50;0.85;;;;;;;;;;5302310;28;20040;-68
2022/03/14 03:30:37;;;;;;;3.25;1.27;;;;;;;;;;5302842;28;20992;-68
2022/03/14 03:33:08;;;;;;;1.42;0.70;;;;;;;;;;5302184;28;20731;-67
2022/03/14 03:35:40;;;;;;;2.28;0.90;;;;;;;;;;5302995;28;20042;-67
2022/03/14 03:38:11;;;;;;;1.88;0.90;;;;;;;;;;5302768;28;20325;-67
2022/03/14 03:40:42;;;;;;;1.45;0.70;;;;;;;;;;5302061;28;20012;-67
2022/03/14 03:43:14;;;;;;;1.90;1.00;;;;;;;;;;5302622;28;20285;-67
2022/03/14 03:45:45;;;;;;;1.90;1.02;;;;;;;;;;5302501;28;20745;-68
2022/03/14 03:48:16;;;;;;;1.60;0.77;;;;;;;;;;5302383;28;20026;-67
2022/03/14 03:50:47;;;;;;;2.25;1.20;;;;;;;;;;5302369;28;20009;-67
2022/03/14 03:53:18;;;;;;;3.83;1.02;;;;;;;;;;5302804;28;20016;-67
2022/03/14 03:55:50;;;;;;;1.90;0.95;;;;;;;;;;5301415;28;20032;-68
2022/03/14 03:58:21;;;;;;;3.15;1.00;;;;;;;;;;5302844;28;20314;-66
2022/03/14 04:00:52;;;;;;;1.75;0.90;;;;;;;;;;5302295;28;20285;-67
2022/03/14 04:03:23;;;;;;;2.22;1.30;;;;;;;;;;5302096;28;20258;-67
2022/03/14 04:05:54;;;;;;;3.60;1.40;;;;;;;;;;5301508;28;20061;-68
2022/03/14 04:08:30;;;;;;;2.35;1.20;;;;;;;;;;5301841;28;20035;-67
2022/03/14 04:11:04;;;;;;;2.20;1.10;;;;;;;;;;5302341;28;20016;-67
2022/03/14 04:13:35;;;;;;;2.28;1.63;;;;;;;;;;5302018;28;20036;-67
2022/03/14 04:16:07;;;;;;;2.53;1.63;;;;;;;;;;5301585;28;20089;-67
2022/03/14 04:18:38;;;;;;;2.38;1.30;;;;;;;;;;5301978;28;20324;-67
2022/03/14 04:21:09;;;;;;;2.67;1.17;;;;;;;;;;5302370;28;20092;-67
2022/03/14 04:23:40;;;;;;;2.40;2.03;;;;;;;;;;5301518;28;20032;-67
2022/03/14 04:26:11;;;;;;;3.60;2.05;;;;;;;;;;5302346;28;20143;-67
2022/03/14 04:28:43;;;;;;;3.22;1.70;;;;;;;;;;5302072;28;20028;-68
2022/03/14 04:31:15;;;;;;;2.97;2.03;;;;;;;;;;5301081;28;20135;-67
2022/03/14 04:33:46;;;;;;;2.80;1.55;;;;;;;;;;5301875;28;20319;-67
2022/03/14 04:36:17;;;;;;;3.28;1.55;;;;;;;;;;5301585;28;20012;-67
2022/03/14 04:38:48;;;;;;;3.13;1.88;;;;;;;;;;5301759;28;20045;-67
2022/03/14 04:41:21;;;;;;;4.35;2.20;;;;;;;;;;5302135;28;20028;-67
2022/03/14 04:43:52;;;;;;;4.07;2.10;;;;;;;;;;5300987;28;20016;-67
2022/03/14 04:46:23;;;;;;;3.35;2.10;;;;;;;;;;5302187;28;20149;-67
2022/03/14 04:48:54;;;;;;;3.03;2.05;;;;;;;;;;5301660;28;20273;-68
2022/03/14 04:51:25;;;;;;;4.18;1.82;;;;;;;;;;5301613;28;20097;-68
2022/03/14 04:53:57;;;;;;;4.47;2.22;;;;;;;;;;5301460;28;20031;-67
2022/03/14 04:56:28;;;;;;;4.10;2.83;;;;;;;;;;5302280;28;20303;-68
2022/03/14 04:58:59;;;;;;;3.00;2.45;;;;;;;;;;5300885;28;20028;-66
2022/03/14 05:01:31;;;;;;;4.40;2.42;;;;;;;;;;5301904;28;20149;-67
2022/03/14 05:04:02;;;;;;;6.45;2.92;;;;;;;;;;5301588;28;20066;-68
2022/03/14 05:06:33;;;;;;;4.05;2.25;;;;;;;;;;5300771;28;20024;-67
2022/03/14 05:09:05;;;;;;;5.03;3.00;;;;;;;;;;5301549;28;20111;-67
2022/03/14 05:11:38;;;;;;;3.92;2.70;;;;;;;;;;5300834;28;20258;-67
2022/03/14 05:14:09;;;;;;;3.70;2.65;;;;;;;;;;5301649;28;20025;-67
2022/03/14 05:16:40;;;;;;;3.60;3.17;;;;;;;;;;5301521;28;20173;-67
2022/03/14 05:19:11;;;;;;;5.15;3.35;;;;;;;;;;5304048;28;20377;-66
2022/03/14 05:21:43;;;;;;;4.03;3.45;;;;;;;;;;5305528;28;20259;-67
2022/03/14 05:24:14;;;;;;;6.00;3.78;;;;;;;;;;5305527;28;20099;-68
2022/03/14 05:26:46;;;;;;;5.65;3.58;;;;;;;;;;5304509;28;20040;-67
2022/03/14 05:29:18;;;;;;;7.07;4.00;;;;;;;;;;5305603;28;20051;-67
2022/03/14 05:31:49;;;;;;;6.25;4.95;;;;;;;;;;5305316;28;20012;-67
2022/03/14 05:34:20;;;;;;;6.20;4.64;;;;;;;;;;5304935;28;20031;-68
2022/03/14 05:36:51;;;;;;;5.22;4.18;;;;;;;;;;5305084;28;20107;-68
2022/03/14 05:39:22;;;;;;;8.48;5.72;;;;;;;;;;5305425;28;20043;-68
2022/03/14 05:41:55;;;;;;;8.20;5.52;;;;;;;;;;5303956;28;20361;-67
2022/03/14 05:44:26;;;;;;;8.98;5.57;;;;;;;;;;5305540;28;20471;-67
2022/03/14 05:46:57;;;;;;;12.60;5.88;;;;;;;;;;5304281;28;20091;-67
2022/03/14 05:49:28;;;;;;;8.45;5.93;;;;;;;;;;5305641;28;20115;-68
2022/03/14 05:52:00;;;;;;;9.20;6.18;;;;;;;;;;5304509;28;20028;-66
2022/03/14 05:54:31;;;;;;;5.63;4.78;;;;;;;;;;5304333;28;20517;-66
2022/03/14 05:57:02;;;;;;;10.32;6.85;;;;;;;;;;5304999;28;20327;-68
2022/03/14 05:59:34;;;;;;;9.63;6.60;;;;;;;;;;5304800;28;20036;-68
2022/03/14 06:02:05;;;;;;;8.82;6.65;;;;;;;;;;5304063;28;20182;-67
2022/03/14 06:04:37;;;;;;;8.50;6.72;;;;;;;;;;5304816;28;20266;-67
2022/03/14 06:07:09;;;;;;;8.57;7.00;;;;;;;;;;5304737;28;20099;-67
2022/03/14 06:09:41;;;;;;;10.95;6.97;;;;;;;;;;5303991;28;20163;-68
2022/03/14 06:12:21;;;;;;;11.25;7.43;;;;;;;;;;5304444;28;20083;-67
2022/03/14 06:14:57;;;;;;;11.07;7.10;;;;;;;;;;5303328;28;20535;-67
2022/03/14 06:17:28;;;;;;;10.52;7.15;;;;;;;;;;5304594;28;20108;-67
2022/03/14 06:19:59;;;;;;;10.57;7.70;;;;;;;;;;5304163;28;20426;-67
2022/03/14 06:22:31;;;;;;;9.70;7.47;;;;;;;;;;5303670;28;20085;-68
2022/03/14 06:25:02;;;;;;;8.43;7.15;;;;;;;;;;5304218;28;20047;-67
2022/03/14 06:27:33;;;;;;;10.55;7.80;;;;;;;;;;5304293;28;20438;-67
2022/03/14 06:30:05;;;;;;;9.80;8.02;;;;;;;;;;5303055;28;20505;-68
2022/03/14 06:32:37;;;;;;;9.50;8.45;;;;;;;;;;5304292;28;20447;-68
2022/03/14 06:35:10;;;;;;;12.25;7.97;;;;;;;;;;5304041;28;20107;-68
2022/03/14 06:37:43;;;;;;;16.08;7.75;;;;;;;;;;5303171;28;20020;-68
2022/03/14 06:40:14;;;;;;;12.05;8.43;;;;;;;;;;5303887;28;20020;-66
2022/03/14 06:42:49;;;;;;;12.10;8.82;;;;;;;;;;5303563;28;20035;-67
2022/03/14 06:45:23;;;;;;;11.85;8.38;;;;;;;;;;5304375;28;20028;-66
2022/03/14 06:47:54;;;;;;;14.23;9.13;;;;;;;;;;5303467;28;20067;-67
2022/03/14 06:50:26;;;;;;;13.63;10.00;;;;;;;;;;5303204;28;20059;-66
2022/03/14 06:53:00;;;;;;;10.30;8.20;;;;;;;;;;5303533;28;20490;-67
2022/03/14 06:55:32;;;;;;;15.85;9.43;;;;;;;;;;5303841;28;20367;-67
2022/03/14 06:58:03;;;;;;;12.80;9.15;;;;;;;;;;5302834;28;20028;-68
2022/03/14 07:00:34;;;;;;;11.84;8.64;;;;;;;;;;5311821;28;20072;-66
2022/03/14 07:03:05;;;;;;;12.23;8.60;;;;;;;;;;5323603;28;20020;-67
2022/03/14 07:05:37;;;;;;;13.82;9.50;;;;;;;;;;5323881;28;20373;-67
2022/03/14 07:08:09;;;;;;;10.98;8.65;;;;;;;;;;5320594;27;20276;-67
2022/03/14 07:10:41;;;;;;;13.90;8.73;;;;;;;;;;5324234;27;20059;-67
2022/03/14 07:13:12;;;;;;;11.38;8.88;;;;;;;;;;5322374;28;20051;-67
2022/03/14 07:15:43;;;;;;;10.98;8.73;;;;;;;;;;5323205;28;20118;-67
2022/03/14 07:18:15;;;;;;;12.13;7.88;;;;;;;;;;5322549;28;20027;-67
2022/03/14 07:20:47;;;;;;;10.55;8.05;;;;;;;;;;5323307;28;20020;-67
2022/03/14 07:23:18;;;;;;;12.82;8.18;;;;;;;;;;5323897;28;20024;-67
2022/03/14 07:25:50;;;;;;;11.93;8.30;;;;;;;;;;5322409;28;20305;-68
2022/03/14 07:28:21;;;;;;;13.57;8.43;;;;;;;;;;5323599;28;20022;-67
2022/03/14 07:30:52;;;;;;;12.88;7.82;;;;;;;;;;5323193;28;20027;-67
2022/03/14 07:33:24;;;;;;;11.27;8.27;;;;;;;;;;5323284;28;20265;-67
2022/03/14 07:35:55;;;;;;;15.45;8.25;;;;;;;;;;5323133;28;20070;-67
2022/03/14 07:38:26;;;;;;;9.13;7.63;;;;;;;;;;5323527;28;20484;-66
2022/03/14 07:40:57;;;;;;;11.44;8.16;;;;;;;;;;5321917;28;20011;-66
2022/03/14 07:43:28;;;;;;;14.82;9.43;;;;;;;;;;5323078;28;20095;-67
2022/03/14 07:46:01;;;;;;;11.60;8.23;;;;;;;;;;5323174;28;20024;-69
2022/03/14 07:48:34;;;;;;;14.70;8.65;;;;;;;;;;5321690;28;20649;-68
2022/03/14 07:51:06;;;;;;;16.88;8.90;;;;;;;;;;5309680;28;20486;-68
2022/03/14 07:53:37;;;;;;;15.07;9.10;;;;;;;;;;5302337;28;20142;-68
2022/03/14 07:56:11;;;;;;;14.10;8.55;;;;;;;;;;5322961;28;20483;-68
2022/03/14 07:58:42;;;;;;;11.10;9.13;;;;;;;;;;5323332;28;20038;-68
2022/03/14 08:01:13;;;;;;;11.45;8.25;;;;;;;;;;5322917;28;20016;-68
2022/03/14 08:03:45;;;;;;;18.27;9.55;;;;;;;;;;5323384;28;20364;-68
2022/03/14 08:06:23;;;;;;;14.50;9.13;;;;;;;;;;5324201;28;20479;-68
2022/03/14 08:08:54;;;;;;;16.17;9.10;;;;;;;;;;5322688;28;20106;-68
2022/03/14 08:11:30;;;;;;;15.60;9.38;;;;;;;;;;5323916;28;20025;-67
2022/03/14 08:14:02;;;;;;;13.63;9.70;;;;;;;;;;5323574;28;20407;-68
2022/03/14 08:16:33;;;;;;;17.80;9.88;;;;;;;;;;5323035;28;20106;-68
2022/03/14 08:19:04;;;;;;;17.63;9.60;;;;;;;;;;5323629;28;20062;-67
2022/03/14 08:21:36;;;;;;;16.17;10.65;;;;;;;;;;5322445;28;20047;-67
2022/03/14 08:24:07;;;;;;;15.00;9.45;;;;;;;;;;5322885;28;20377;-68
2022/03/14 08:26:38;;;;;;;14.32;9.73;;;;;;;;;;5323320;28;20018;-69
2022/03/14 08:29:10;;;;;;;14.65;8.43;;;;;;;;;;5322549;28;20446;-69
2022/03/14 08:31:41;;;;;;;14.35;8.25;;;;;;;;;;5323449;28;20293;-69
2022/03/14 08:34:13;;;;;;;18.08;8.88;;;;;;;;;;5323483;28;20027;-69
2022/03/14 08:36:44;;;;;;;12.35;8.07;;;;;;;;;;5322343;28;20012;-69
2022/03/14 08:39:15;;;;;;;13.35;8.85;;;;;;;;;;5323656;28;20020;-70
2022/03/14 08:41:48;;;;;;;12.93;8.10;;;;;;;;;;5323221;28;20026;-69
2022/03/14 08:44:19;;;;;;;10.73;7.70;;;;;;;;;;5322671;28;20095;-68
2022/03/14 08:46:51;;;;;;;10.77;7.40;;;;;;;;;;5322797;28;20091;-67
2022/03/14 08:49:22;;;;;;;18.88;8.02;;;;;;;;;;5323132;28;20031;-67
2022/03/14 08:51:53;;;;;;;11.38;7.40;;;;;;;;;;5322697;28;20443;-67
2022/03/14 08:54:24;;;;;;;13.70;7.18;;;;;;;;;;5327544;28;20319;-67
2022/03/14 08:56:56;;;;;;;13.77;6.75;;;;;;;;;;5326298;28;20276;-67
2022/03/14 08:59:27;;;;;;;14.00;6.97;;;;;;;;;;5326226;28;20450;-67
2022/03/14 09:01:58;;;;;;;14.75;6.95;;;;;;;;;;5327109;28;20012;-68
2022/03/14 09:04:29;;;;;;;14.35;6.70;;;;;;;;;;5326842;28;20265;-68
2022/03/14 09:07:00;;;;;;;13.10;6.32;;;;;;;;;;5304373;28;20362;-68
2022/03/14 09:09:32;;;;;;;15.07;5.57;;;;;;;;;;5306021;28;20020;-68
2022/03/14 09:12:03;;;;;;;11.52;5.93;;;;;;;;;;5304260;28;20097;-68
2022/03/14 09:14:36;;;;;;;6.97;4.85;;;;;;;;;;5305130;28;20482;-68
2022/03/14 09:17:08;;;;;;;9.18;5.68;;;;;;;;;;5305565;28;20085;-68
2022/03/14 09:19:40;;;;;;;11.15;5.45;;;;;;;;;;5304945;28;20036;-68
2022/03/14 09:22:11;;;;;;;9.38;4.88;;;;;;;;;;5305179;28;20027;-68
2022/03/14 09:24:43;;;;;;;10.90;5.57;;;;;;;;;;5304807;28;20394;-69
2022/03/14 09:27:14;;;;;;;10.65;5.10;;;;;;;;;;5305341;28;20023;-68
2022/03/14 09:29:45;;;;;;;8.80;5.05;;;;;;;;;;5304998;28;20023;-68
2022/03/14 09:32:17;;;;;;;11.07;5.75;;;;;;;;;;5304614;28;20107;-68
2022/03/14 09:34:48;;;;;;;15.63;5.88;;;;;;;;;;5304882;28;20270;-68
2022/03/14 09:37:19;;;;;;;10.18;5.03;;;;;;;;;;5305235;28;20497;-68
2022/03/14 09:39:50;;;;;;;6.93;3.92;;;;;;;;;;5304152;28;20085;-68
2022/03/14 09:42:23;;;;;;;9.18;3.85;;;;;;;;;;5305333;28;20039;-68
2022/03/14 09:44:55;;;;;;;9.60;4.07;;;;;;;;;;5304719;28;20267;-68
2022/03/14 09:47:27;;;;;;;8.05;3.85;;;;;;;;;;5304474;28;20432;-68
2022/03/14 09:49:59;;;;;;;10.35;4.18;;;;;;;;;;5305287;28;20069;-68
2022/03/14 09:52:32;;;;;;;8.15;3.60;;;;;;;;;;5305108;28;20024;-68
2022/03/14 09:55:05;;;;;;;8.77;3.97;;;;;;;;;;5304440;28;20213;-68
2022/03/14 09:57:37;;;;;;;9.27;3.83;;;;;;;;;;5304891;28;20055;-68
2022/03/14 10:00:15;;;;;;;9.65;3.88;;;;;;;;;;5304141;28;20074;-68
2022/03/14 10:02:47;;;;;;;7.38;4.20;;;;;;;;;;5304903;28;20435;-68
2022/03/14 10:05:19;;;;;;;8.55;4.03;;;;;;;;;;5304287;28;20095;-68
2022/03/14 10:07:50;;;;;;;7.05;3.83;;;;;;;;;;5303976;28;20016;-68
2022/03/14 10:10:22;;;;;;;8.75;3.70;;;;;;;;;;5305128;28;20077;-68
2022/03/14 10:12:55;;;;;;;10.00;3.95;;;;;;;;;;5302878;28;20039;-68
2022/03/14 10:15:27;;;;;;;10.63;3.70;;;;;;;;;;5305458;28;20043;-68
2022/03/14 10:17:58;;;;;;;8.77;3.75;;;;;;;;;;5303456;28;20028;-68
2022/03/14 10:20:29;;;;;;;5.85;3.03;;;;;;;;;;5303669;28;20016;-69
2022/03/14 10:23:00;;;;;;;9.23;2.90;;;;;;;;;;5303019;28;20056;-69
2022/03/14 10:25:31;;;;;;;6.10;3.08;;;;;;;;;;5303927;28;20032;-68
2022/03/14 10:28:07;;;;;;;6.68;3.55;;;;;;;;;;5302545;28;20062;-68
2022/03/14 10:30:38;;;;;;;6.15;3.42;;;;;;;;;;5303588;28;20107;-68
2022/03/14 10:33:11;;;;;;;5.47;2.60;;;;;;;;;;5303310;28;20127;-68
2022/03/14 10:35:42;;;;;;;8.60;4.50;;;;;;;;;;5302758;28;20070;-69
2022/03/14 10:38:16;;;;;;;6.30;5.13;;;;;;;;;;5304226;28;20043;-69
2022/03/14 10:40:47;;;;;;;9.75;6.20;;;;;;;;;;5303998;28;20107;-69
2022/03/14 10:43:22;;;;;;;9.00;6.20;;;;;;;;;;5303640;28;20111;-69
2022/03/14 10:45:55;;;;;;;8.45;5.25;;;;;;;;;;5303673;28;20469;-69
2022/03/14 10:48:32;;;;;;;8.10;4.13;;;;;;;;;;5304178;28;20032;-69
2022/03/14 10:51:05;;;;;;;4.70;3.45;;;;;;;;;;5303475;28;20757;-68
2022/03/14 10:53:44;;;;;;;10.70;4.07;;;;;;;;;;5303933;28;20015;-69
2022/03/14 10:56:15;;;;;;;;;;;;;;;;;;5303604;28;20073;-69
2022/03/14 10:58:46;;;;;;;8.77;3.53;;;;;;;;;;5303722;28;20009;-68
2022/03/14 11:01:17;;;;;;;6.07;2.88;;;;;;;;;;5304425;28;20265;-68
2022/03/14 11:03:49;;;;;;;8.70;2.72;;;;;;;;;;5302039;28;20040;-67
2022/03/14 11:06:20;;;;;;;6.75;2.60;;;;;;;;;;5303888;28;20023;-67
2022/03/14 11:08:53;;;;;;;6.22;2.55;;;;;;;;;;5303330;28;20347;-68
2022/03/14 11:11:24;;;;;;;8.43;2.78;;;;;;;;;;5302624;28;20024;-67
2022/03/14 11:13:56;;;;;;;6.55;2.40;;;;;;;;;;5303095;28;20384;-68
2022/03/14 11:16:29;;;;;;;6.63;2.00;;;;;;;;;;5303463;28;20477;-68
2022/03/14 11:19:00;;;;;;;9.07;2.20;;;;;;;;;;5302472;28;20439;-68
2022/03/14 11:21:33;;;;;;;3.72;1.17;;;;;;;;;;5303013;28;20044;-69
2022/03/14 11:24:04;;;;;;;5.85;2.13;;;;;;;;;;5303468;28;20030;-68
2022/03/14 11:26:39;;;;;;;7.47;1.83;;;;;;;;;;5302245;28;20085;-71
2022/03/14 11:29:12;;;;;;;4.72;1.48;;;;;;;;;;5303418;28;20021;-69
2022/03/14 11:31:47;;;;;;;5.15;1.55;;;;;;;;;;5302288;28;20418;-69
2022/03/14 11:34:19;;;;;;;5.03;1.33;;;;;;;;;;5303485;28;20019;-67
2022/03/14 11:36:50;;;;;;;5.50;1.50;;;;;;;;;;5302836;28;20473;-67
2022/03/14 11:39:22;;;;;;;6.05;2.10;;;;;;;;;;5302529;28;20071;-67
2022/03/14 11:41:56;;;;;;;4.63;1.42;;;;;;;;;;5302521;28;20024;-67
2022/03/14 11:44:27;;;;;;;6.65;1.30;;;;;;;;;;5303193;28;20095;-68
2022/03/14 11:46:59;;;;;;;4.88;1.23;;;;;;;;;;5306987;28;20095;-68
2022/03/14 11:49:31;;;;;;;6.25;1.33;;;;;;;;;;5302694;28;20155;-69
2022/03/14 11:52:14;;;;;;;4.35;1.25;;;;;;;;;;5302670;28;20012;-69
2022/03/14 11:54:50;;;;;;;4.10;1.10;;;;;;;;;;5301984;28;20489;-68
2022/03/14 11:57:37;;;;;;;3.22;1.10;;;;;;;;;;5302739;28;20103;-68
2022/03/14 12:00:32;;;;;;;4.95;0.90;;;;;;;;;;5301762;28;20036;-68
2022/03/14 12:03:05;;;;;;;9.00;1.10;;;;;;;;;;5302236;28;20548;-68
2022/03/14 12:05:38;;;;;;;7.40;1.75;;;;;;;;;;5302558;28;20012;-69
2022/03/14 12:08:15;;;;;;;3.95;1.10;;;;;;;;;;5300732;28;20165;-68
2022/03/14 12:10:46;;;;;;;4.85;1.48;;;;;;;;;;5301305;28;20024;-69
2022/03/14 12:13:39;;;;;;;5.90;1.80;;;;;;;;;;5302439;28;20127;-69
2022/03/14 12:16:29;;;;;;;10.38;1.77;;;;;;;;;;5302049;28;20369;-69
2022/03/14 12:19:00;;;;;;;6.65;2.13;;;;;;;;;;5301955;28;20036;-69
2022/03/14 12:21:44;;;;;;;4.75;1.55;;;;;;;;;;5301554;28;20344;-69
2022/03/14 12:24:19;;;;;;;4.65;1.17;;;;;;;;;;5302468;28;20073;-69
2022/03/14 12:26:58;;;;;;;6.65;1.80;;;;;;;;;;5301469;28;20397;-69
2022/03/14 12:29:40;;;;;;;10.63;2.47;;;;;;;;;;5301758;28;20024;-69
2022/03/14 12:32:24;;;;;;;8.90;1.73;;;;;;;;;;5302204;28;20102;-69
2022/03/14 12:35:07;;;;;;;6.38;1.73;;;;;;;;;;5301267;28;20024;-69
2022/03/14 12:37:59;;;;;;;6.63;1.80;;;;;;;;;;5302206;28;20024;-69
2022/03/14 12:40:33;;;;;;;6.57;2.17;;;;;;;;;;5301494;28;20092;-70
2022/03/14 12:43:07;;;;;;;7.90;2.55;;;;;;;;;;5301191;28;20031;-69
2022/03/14 12:45:40;;;;;;;5.30;1.95;;;;;;;;;;5302188;28;20020;-68
2022/03/14 12:48:19;;;;;;;4.68;2.13;;;;;;;;;;5302316;28;20026;-69
2022/03/14 12:50:50;;;;;;;;;;;;;;;;;;5301627;28;20044;-68
2022/03/14 12:53:27;;;;;;;4.70;1.90;;;;;;;;;;5302198;28;20314;-68
2022/03/14 12:56:00;;;;;;;5.47;2.15;;;;;;;;;;5301025;28;20274;-68
2022/03/14 12:58:31;;;;;;;6.32;1.83;;;;;;;;;;5301886;28;20052;-68
2022/03/14 13:01:04;;;;;;;4.03;1.65;;;;;;;;;;5301955;28;20035;-68
2022/03/14 13:03:36;;;;;;;9.65;2.80;;;;;;;;;;5301000;28;20230;-68
2022/03/14 13:06:08;;;;;;;7.38;2.03;;;;;;;;;;5301997;28;20020;-69
2022/03/14 13:08:49;;;;;;;5.13;1.90;;;;;;;;;;5301789;28;20023;-68
2022/03/14 13:11:20;;;;;;;7.07;1.90;;;;;;;;;;5301261;28;20017;-68
2022/03/14 13:13:51;;;;;;;7.60;2.05;;;;;;;;;;5300743;28;20039;-68
2022/03/14 13:16:28;;;;;;;8.23;2.15;;;;;;;;;;5302132;28;20749;-69
2022/03/14 13:19:00;;;;;;;8.63;2.55;;;;;;;;;;5300679;28;20159;-68
2022/03/14 13:21:32;;;;;;;7.13;1.98;;;;;;;;;;5300895;28;20070;-67
2022/03/14 13:24:07;;;;;;;5.55;2.03;;;;;;;;;;5300699;28;20155;-68
2022/03/14 13:26:40;;;;;;;8.30;1.65;;;;;;;;;;5301489;28;20020;-68
2022/03/14 13:29:12;;;;;;;6.95;1.70;;;;;;;;;;5301756;28;20119;-68
2022/03/14 13:31:47;;;;;;;4.47;1.52;;;;;;;;;;5300795;28;20095;-68
2022/03/14 13:34:22;;;;;;;8.02;2.30;;;;;;;;;;5301621;28;20020;-68
2022/03/14 13:37:01;;;;;;;6.80;1.85;;;;;;;;;;5300895;28;20020;-68
2022/03/14 13:39:33;;;;;;;4.50;2.10;;;;;;;;;;5299781;28;20131;-68
2022/03/14 13:42:05;;;;;;;10.93;2.42;;;;;;;;;;5304743;28;20102;-69
2022/03/14 13:44:36;;;;;;;8.75;2.22;;;;;;;;;;5304936;28;20016;-68
2022/03/14 13:47:08;;;;;;;11.95;2.92;;;;;;;;;;5304021;28;20423;-69
2022/03/14 13:49:43;;;;;;;7.05;2.70;;;;;;;;;;5305030;28;20016;-69
2022/03/14 13:52:24;;;;;;;10.65;4.15;;;;;;;;;;5304074;28;20118;-69
2022/03/14 13:54:56;;;;;;;8.65;5.00;;;;;;;;;;5304482;28;20020;-68
2022/03/14 13:57:27;;;;;;;17.52;5.68;;;;;;;;;;5305195;28;20524;-69
2022/03/14 13:59:59;;;;;;;12.63;5.70;;;;;;;;;;5303662;28;20066;-68
2022/03/14 14:02:32;;;;;;;8.20;5.28;;;;;;;;;;5304690;28;20378;-68
2022/03/14 14:05:10;;;;;;;10.43;6.90;;;;;;;;;;5304451;28;20024;-68
2022/03/14 14:07:51;;;;;;;9.95;6.50;;;;;;;;;;5304351;28;20099;-69
2022/03/14 14:10:23;;;;;;;12.38;6.40;;;;;;;;;;5305349;28;20023;-69
2022/03/14 14:12:59;;;;;;;10.90;6.57;;;;;;;;;;5308519;28;20047;-69
2022/03/14 14:15:47;;;;;;;10.82;5.35;;;;;;;;;;5304411;28;20020;-70
2022/03/14 14:18:22;;;;;;;11.60;5.85;;;;;;;;;;5304515;28;20026;-69
2022/03/14 14:20:56;;;;;;;11.15;4.60;;;;;;;;;;5303388;28;20027;-69
2022/03/14 14:23:32;;;;;;;11.60;4.20;;;;;;;;;;5312432;28;20019;-69
2022/03/14 14:26:04;;;;;;;10.20;4.82;;;;;;;;;;5309339;28;20521;-69
2022/03/14 14:28:38;;;;;;;6.63;4.18;;;;;;;;;;5303126;28;20045;-69
2022/03/14 14:31:20;;;;;;;12.13;3.67;;;;;;;;;;5303673;28;20101;-69
2022/03/14 14:33:51;;;;;;;6.35;3.08;;;;;;;;;;5303186;28;20012;-69
2022/03/14 14:36:23;;;;;;;9.45;2.90;;;;;;;;;;5303074;28;20375;-70
2022/03/14 14:38:54;;;;;;;10.05;3.20;;;;;;;;;;5303091;28;20039;-69
2022/03/14 14:41:25;;;;;;;7.10;2.92;;;;;;;;;;5302722;28;20023;-70
2022/03/14 14:43:56;;;;;;;9.90;2.47;;;;;;;;;;5302972;28;20378;-68
2022/03/14 14:46:27;;;;;;;8.10;3.05;;;;;;;;;;5303272;28;20035;-69
2022/03/14 14:48:59;;;;;;;5.53;2.63;;;;;;;;;;5297805;28;20045;-69
2022/03/14 14:51:31;;;;;;;6.47;3.23;;;;;;;;;;5302303;28;20266;-69
2022/03/14 14:54:02;;;;;;;9.40;2.75;;;;;;;;;;5302366;28;20266;-69
2022/03/14 14:56:33;;;;;;;9.80;4.00;;;;;;;;;;5301816;28;20017;-69
2022/03/14 14:59:05;;;;;;;6.82;2.88;;;;;;;;;;5302531;28;20375;-69
2022/03/14 15:01:37;;;;;;;8.75;2.95;;;;;;;;;;5302880;28;20024;-69
2022/03/14 15:04:08;;;;;;;6.90;2.90;;;;;;;;;;5302153;28;20042;-69
2022/03/14 15:06:39;;;;;;;6.28;2.60;;;;;;;;;;5302496;28;20016;-69
2022/03/14 15:09:11;;;;;;;6.03;1.92;;;;;;;;;;5301996;28;20020;-69
2022/03/14 15:11:42;;;;;;;9.15;2.97;;;;;;;;;;5302169;28;20032;-69